sensor_id;sensor_type;location;lat;lon;timestamp;temperature;humidity
60495;DHT22;46342;49.046;11.920;2024-02-21T00:01:35;8.70;58.90
60495;DHT22;46342;49.046;11.920;2024-02-21T00:04:01;8.70;58.90
60495;DHT22;46342;49.046;11.920;2024-02-21T00:06:27;8.80;59.00
60495;DHT22;46342;49.046;11.920;2024-02-21T00:08:52;8.80;59.00
60495;DHT22;46342;49.046;11.920;2024-02-21T00:11:18;8.80;59.00
60495;DHT22;46342;49.046;11.920;2024-02-21T00:13:43;8.80;58.90
60495;DHT22;46342;49.046;11.920;2024-02-21T00:16:09;8.80;58.90
60495;DHT22;46342;49.046;11.920;2024-02-21T00:18:36;8.80;58.90
60495;DHT22;46342;49.046;11.920;2024-02-21T00:21:01;8.80;58.90
60495;DHT22;46342;49.046;11.920;2024-02-21T00:23:27;8.80;58.80
60495;DHT22;46342;49.046;11.920;2024-02-21T00:25:54;8.80;58.80
60495;DHT22;46342;49.046;11.920;2024-02-21T00:28:19;8.80;58.80
60495;DHT22;46342;49.046;11.920;2024-02-21T00:30:45;8.80;58.80
60495;DHT22;46342;49.046;11.920;2024-02-21T00:33:13;8.80;58.80
60495;DHT22;46342;49.046;11.920;2024-02-21T00:35:39;8.80;58.80
60495;DHT22;46342;49.046;11.920;2024-02-21T00:38:04;8.80;58.80
60495;DHT22;46342;49.046;11.920;2024-02-21T00:40:30;8.80;58.80
60495;DHT22;46342;49.046;11.920;2024-02-21T00:42:56;8.80;58.80
60495;DHT22;46342;49.046;11.920;2024-02-21T00:45:21;8.80;58.80
60495;DHT22;46342;49.046;11.920;2024-02-21T00:47:47;8.80;58.80
60495;DHT22;46342;49.046;11.920;2024-02-21T00:50:13;8.80;58.80
60495;DHT22;46342;49.046;11.920;2024-02-21T00:52:38;8.80;58.90
60495;DHT22;46342;49.046;11.920;2024-02-21T00:55:04;8.90;58.90
60495;DHT22;46342;49.046;11.920;2024-02-21T00:57:30;8.80;58.90
60495;DHT22;46342;49.046;11.920;2024-02-21T00:59:56;8.70;58.80
60495;DHT22;46342;49.046;11.920;2024-02-21T01:02:21;8.70;58.80
60495;DHT22;46342;49.046;11.920;2024-02-21T01:04:47;8.70;58.80
60495;DHT22;46342;49.046;11.920;2024-02-21T01:07:12;8.70;59.40
60495;DHT22;46342;49.046;11.920;2024-02-21T01:09:38;8.70;58.80
60495;DHT22;46342;49.046;11.920;2024-02-21T01:12:03;8.70;58.80
60495;DHT22;46342;49.046;11.920;2024-02-21T01:14:29;8.70;58.80
60495;DHT22;46342;49.046;11.920;2024-02-21T01:16:55;8.80;58.90
60495;DHT22;46342;49.046;11.920;2024-02-21T01:19:20;8.70;58.90
60495;DHT22;46342;49.046;11.920;2024-02-21T01:21:46;8.70;58.90
60495;DHT22;46342;49.046;11.920;2024-02-21T01:24:11;8.80;59.00
60495;DHT22;46342;49.046;11.920;2024-02-21T01:26:37;8.70;58.90
60495;DHT22;46342;49.046;11.920;2024-02-21T01:29:02;8.70;58.90
60495;DHT22;46342;49.046;11.920;2024-02-21T01:31:28;8.70;58.90
60495;DHT22;46342;49.046;11.920;2024-02-21T01:33:53;8.70;58.90
60495;DHT22;46342;49.046;11.920;2024-02-21T01:36:19;8.70;58.90
60495;DHT22;46342;49.046;11.920;2024-02-21T01:38:44;8.70;58.90
60495;DHT22;46342;49.046;11.920;2024-02-21T01:41:10;8.70;59.00
60495;DHT22;46342;49.046;11.920;2024-02-21T01:43:35;8.60;58.90
60495;DHT22;46342;49.046;11.920;2024-02-21T01:46:01;8.60;58.90
60495;DHT22;46342;49.046;11.920;2024-02-21T01:48:27;8.60;58.90
60495;DHT22;46342;49.046;11.920;2024-02-21T01:50:54;8.60;58.90
60495;DHT22;46342;49.046;11.920;2024-02-21T01:53:28;8.60;59.60
60495;DHT22;46342;49.046;11.920;2024-02-21T01:55:54;8.60;59.00
60495;DHT22;46342;49.046;11.920;2024-02-21T01:58:21;8.60;59.00
60495;DHT22;46342;49.046;11.920;2024-02-21T02:00:47;8.60;59.10
60495;DHT22;46342;49.046;11.920;2024-02-21T02:03:14;8.60;59.10
60495;DHT22;46342;49.046;11.920;2024-02-21T02:05:49;8.60;59.10
60495;DHT22;46342;49.046;11.920;2024-02-21T02:08:16;8.60;59.20
60495;DHT22;46342;49.046;11.920;2024-02-21T02:10:42;8.60;59.20
60495;DHT22;46342;49.046;11.920;2024-02-21T02:13:08;8.60;59.20
60495;DHT22;46342;49.046;11.920;2024-02-21T02:15:41;8.60;59.20
60495;DHT22;46342;49.046;11.920;2024-02-21T02:18:07;8.60;59.30
60495;DHT22;46342;49.046;11.920;2024-02-21T02:20:33;8.60;59.20
60495;DHT22;46342;49.046;11.920;2024-02-21T02:22:59;8.60;59.20
60495;DHT22;46342;49.046;11.920;2024-02-21T02:25:26;8.60;59.20
60495;DHT22;46342;49.046;11.920;2024-02-21T02:27:51;8.60;59.20
60495;DHT22;46342;49.046;11.920;2024-02-21T02:30:17;8.50;59.20
60495;DHT22;46342;49.046;11.920;2024-02-21T02:32:46;8.50;59.20
60495;DHT22;46342;49.046;11.920;2024-02-21T02:35:12;8.50;59.30
60495;DHT22;46342;49.046;11.920;2024-02-21T02:37:37;8.50;59.20
60495;DHT22;46342;49.046;11.920;2024-02-21T02:40:08;8.50;59.20
60495;DHT22;46342;49.046;11.920;2024-02-21T02:42:33;8.50;59.20
60495;DHT22;46342;49.046;11.920;2024-02-21T02:44:59;8.50;59.20
60495;DHT22;46342;49.046;11.920;2024-02-21T02:47:25;8.50;59.30
60495;DHT22;46342;49.046;11.920;2024-02-21T02:49:50;8.50;59.30
60495;DHT22;46342;49.046;11.920;2024-02-21T02:52:19;8.50;59.30
60495;DHT22;46342;49.046;11.920;2024-02-21T02:54:45;8.50;59.40
60495;DHT22;46342;49.046;11.920;2024-02-21T02:57:11;8.40;59.30
60495;DHT22;46342;49.046;11.920;2024-02-21T02:59:36;8.40;59.30
60495;DHT22;46342;49.046;11.920;2024-02-21T03:02:02;8.40;59.30
60495;DHT22;46342;49.046;11.920;2024-02-21T03:04:27;8.40;59.30
60495;DHT22;46342;49.046;11.920;2024-02-21T03:06:53;8.40;59.40
60495;DHT22;46342;49.046;11.920;2024-02-21T03:09:19;8.40;59.40
60495;DHT22;46342;49.046;11.920;2024-02-21T03:11:44;8.40;59.40
60495;DHT22;46342;49.046;11.920;2024-02-21T03:14:10;8.40;59.50
60495;DHT22;46342;49.046;11.920;2024-02-21T03:16:36;8.30;59.40
60495;DHT22;46342;49.046;11.920;2024-02-21T03:19:01;8.30;59.40
60495;DHT22;46342;49.046;11.920;2024-02-21T03:21:27;8.30;59.40
60495;DHT22;46342;49.046;11.920;2024-02-21T03:23:53;8.30;59.50
60495;DHT22;46342;49.046;11.920;2024-02-21T03:26:18;8.30;59.50
60495;DHT22;46342;49.046;11.920;2024-02-21T03:28:44;8.30;59.50
60495;DHT22;46342;49.046;11.920;2024-02-21T03:31:13;8.40;59.60
60495;DHT22;46342;49.046;11.920;2024-02-21T03:33:42;8.30;59.60
60495;DHT22;46342;49.046;11.920;2024-02-21T03:36:13;8.30;59.60
60495;DHT22;46342;49.046;11.920;2024-02-21T03:38:39;8.30;59.60
60495;DHT22;46342;49.046;11.920;2024-02-21T03:41:05;8.30;59.60
60495;DHT22;46342;49.046;11.920;2024-02-21T03:43:31;8.30;59.60
60495;DHT22;46342;49.046;11.920;2024-02-21T03:45:56;8.30;59.60
60495;DHT22;46342;49.046;11.920;2024-02-21T03:48:22;8.30;59.60
60495;DHT22;46342;49.046;11.920;2024-02-21T03:50:47;8.30;59.60
60495;DHT22;46342;49.046;11.920;2024-02-21T03:53:13;8.30;59.60
60495;DHT22;46342;49.046;11.920;2024-02-21T03:55:39;8.30;59.60
60495;DHT22;46342;49.046;11.920;2024-02-21T03:58:04;8.30;59.70
60495;DHT22;46342;49.046;11.920;2024-02-21T04:00:30;8.40;59.80
60495;DHT22;46342;49.046;11.920;2024-02-21T04:02:55;8.30;59.70
60495;DHT22;46342;49.046;11.920;2024-02-21T04:05:21;8.30;59.70
60495;DHT22;46342;49.046;11.920;2024-02-21T04:07:47;8.30;59.70
60495;DHT22;46342;49.046;11.920;2024-02-21T04:10:12;8.30;59.70
60495;DHT22;46342;49.046;11.920;2024-02-21T04:12:38;8.30;59.70
60495;DHT22;46342;49.046;11.920;2024-02-21T04:15:04;8.30;59.70
60495;DHT22;46342;49.046;11.920;2024-02-21T04:17:30;8.30;59.70
60495;DHT22;46342;49.046;11.920;2024-02-21T04:20:04;8.30;59.70
60495;DHT22;46342;49.046;11.920;2024-02-21T04:22:33;8.40;59.90
60495;DHT22;46342;49.046;11.920;2024-02-21T04:25:02;8.30;59.70
60495;DHT22;46342;49.046;11.920;2024-02-21T04:27:27;8.40;59.90
60495;DHT22;46342;49.046;11.920;2024-02-21T04:29:53;8.40;59.80
60495;DHT22;46342;49.046;11.920;2024-02-21T04:32:19;8.40;59.80
60495;DHT22;46342;49.046;11.920;2024-02-21T04:34:45;8.40;59.80
60495;DHT22;46342;49.046;11.920;2024-02-21T04:37:10;8.40;59.80
60495;DHT22;46342;49.046;11.920;2024-02-21T04:39:36;8.40;59.80
60495;DHT22;46342;49.046;11.920;2024-02-21T04:42:01;8.40;59.80
60495;DHT22;46342;49.046;11.920;2024-02-21T04:44:27;8.40;59.80
60495;DHT22;46342;49.046;11.920;2024-02-21T04:46:52;8.40;59.80
60495;DHT22;46342;49.046;11.920;2024-02-21T04:49:18;8.40;59.80
60495;DHT22;46342;49.046;11.920;2024-02-21T04:51:45;8.40;59.80
60495;DHT22;46342;49.046;11.920;2024-02-21T04:54:10;8.40;59.90
60495;DHT22;46342;49.046;11.920;2024-02-21T04:56:36;8.40;59.80
60495;DHT22;46342;49.046;11.920;2024-02-21T04:59:01;8.30;59.70
60495;DHT22;46342;49.046;11.920;2024-02-21T05:01:28;8.40;59.80
60495;DHT22;46342;49.046;11.920;2024-02-21T05:03:54;8.40;59.80
60495;DHT22;46342;49.046;11.920;2024-02-21T05:06:19;8.40;59.80
60495;DHT22;46342;49.046;11.920;2024-02-21T05:08:45;8.40;59.80
60495;DHT22;46342;49.046;11.920;2024-02-21T05:11:10;8.40;59.80
60495;DHT22;46342;49.046;11.920;2024-02-21T05:13:36;8.40;59.80
60495;DHT22;46342;49.046;11.920;2024-02-21T05:16:01;8.40;59.80
60495;DHT22;46342;49.046;11.920;2024-02-21T05:18:28;8.40;59.90
60495;DHT22;46342;49.046;11.920;2024-02-21T05:20:54;8.40;59.80
60495;DHT22;46342;49.046;11.920;2024-02-21T05:23:19;8.40;59.80
60495;DHT22;46342;49.046;11.920;2024-02-21T05:25:45;8.40;59.80
60495;DHT22;46342;49.046;11.920;2024-02-21T05:28:11;8.40;60.10
60495;DHT22;46342;49.046;11.920;2024-02-21T05:30:36;8.40;59.80
60495;DHT22;46342;49.046;11.920;2024-02-21T05:33:05;8.40;59.80
60495;DHT22;46342;49.046;11.920;2024-02-21T05:35:31;8.40;59.80
60495;DHT22;46342;49.046;11.920;2024-02-21T05:37:57;8.40;59.80
60495;DHT22;46342;49.046;11.920;2024-02-21T05:40:22;8.40;59.80
60495;DHT22;46342;49.046;11.920;2024-02-21T05:42:48;8.40;59.70
60495;DHT22;46342;49.046;11.920;2024-02-21T05:45:14;8.40;59.80
60495;DHT22;46342;49.046;11.920;2024-02-21T05:47:41;8.40;59.80
60495;DHT22;46342;49.046;11.920;2024-02-21T05:50:07;8.40;59.80
60495;DHT22;46342;49.046;11.920;2024-02-21T05:52:33;8.40;59.80
60495;DHT22;46342;49.046;11.920;2024-02-21T05:54:58;8.40;59.80
60495;DHT22;46342;49.046;11.920;2024-02-21T05:57:24;8.40;59.80
60495;DHT22;46342;49.046;11.920;2024-02-21T05:59:49;8.40;59.80
60495;DHT22;46342;49.046;11.920;2024-02-21T06:02:15;8.40;59.80
60495;DHT22;46342;49.046;11.920;2024-02-21T06:04:41;8.40;59.80
60495;DHT22;46342;49.046;11.920;2024-02-21T06:07:08;8.40;59.80
60495;DHT22;46342;49.046;11.920;2024-02-21T06:09:34;8.40;60.70
60495;DHT22;46342;49.046;11.920;2024-02-21T06:11:59;8.40;59.80
60495;DHT22;46342;49.046;11.920;2024-02-21T06:14:26;8.40;59.90
60495;DHT22;46342;49.046;11.920;2024-02-21T06:16:51;8.40;59.90
60495;DHT22;46342;49.046;11.920;2024-02-21T06:19:17;8.40;59.90
60495;DHT22;46342;49.046;11.920;2024-02-21T06:21:42;8.40;59.80
60495;DHT22;46342;49.046;11.920;2024-02-21T06:24:08;8.40;59.80
60495;DHT22;46342;49.046;11.920;2024-02-21T06:26:34;8.40;59.80
60495;DHT22;46342;49.046;11.920;2024-02-21T06:28:59;8.40;59.90
60495;DHT22;46342;49.046;11.920;2024-02-21T06:31:25;8.40;59.90
60495;DHT22;46342;49.046;11.920;2024-02-21T06:33:51;8.40;59.90
60495;DHT22;46342;49.046;11.920;2024-02-21T06:36:16;8.40;59.90
60495;DHT22;46342;49.046;11.920;2024-02-21T06:38:42;8.40;59.90
60495;DHT22;46342;49.046;11.920;2024-02-21T06:41:17;8.50;59.90
60495;DHT22;46342;49.046;11.920;2024-02-21T06:43:45;8.50;59.90
60495;DHT22;46342;49.046;11.920;2024-02-21T06:46:11;8.50;59.90
60495;DHT22;46342;49.046;11.920;2024-02-21T06:48:37;8.50;59.80
60495;DHT22;46342;49.046;11.920;2024-02-21T06:51:03;8.50;59.80
60495;DHT22;46342;49.046;11.920;2024-02-21T06:53:29;8.50;59.80
60495;DHT22;46342;49.046;11.920;2024-02-21T06:55:54;8.50;59.80
60495;DHT22;46342;49.046;11.920;2024-02-21T06:58:20;8.50;59.80
60495;DHT22;46342;49.046;11.920;2024-02-21T07:00:45;8.50;59.80
60495;DHT22;46342;49.046;11.920;2024-02-21T07:03:11;8.50;59.80
60495;DHT22;46342;49.046;11.920;2024-02-21T07:05:36;8.50;59.80
60495;DHT22;46342;49.046;11.920;2024-02-21T07:08:02;8.50;59.80
60495;DHT22;46342;49.046;11.920;2024-02-21T07:10:28;8.50;59.80
60495;DHT22;46342;49.046;11.920;2024-02-21T07:12:55;8.60;59.90
60495;DHT22;46342;49.046;11.920;2024-02-21T07:15:20;8.60;59.80
60495;DHT22;46342;49.046;11.920;2024-02-21T07:17:46;8.60;59.80
60495;DHT22;46342;49.046;11.920;2024-02-21T07:20:12;8.60;59.80
60495;DHT22;46342;49.046;11.920;2024-02-21T07:22:37;8.60;59.80
60495;DHT22;46342;49.046;11.920;2024-02-21T07:25:03;8.60;59.80
60495;DHT22;46342;49.046;11.920;2024-02-21T07:27:29;8.60;59.80
60495;DHT22;46342;49.046;11.920;2024-02-21T07:29:57;8.60;59.70
60495;DHT22;46342;49.046;11.920;2024-02-21T07:32:22;8.60;59.70
60495;DHT22;46342;49.046;11.920;2024-02-21T07:34:48;8.60;59.70
60495;DHT22;46342;49.046;11.920;2024-02-21T07:37:14;8.60;59.70
60495;DHT22;46342;49.046;11.920;2024-02-21T07:39:39;8.60;59.70
60495;DHT22;46342;49.046;11.920;2024-02-21T07:42:05;8.60;59.70
60495;DHT22;46342;49.046;11.920;2024-02-21T07:44:31;8.60;59.70
60495;DHT22;46342;49.046;11.920;2024-02-21T07:46:57;8.60;59.70
60495;DHT22;46342;49.046;11.920;2024-02-21T07:49:23;8.60;59.70
60495;DHT22;46342;49.046;11.920;2024-02-21T07:51:49;8.60;59.70
60495;DHT22;46342;49.046;11.920;2024-02-21T07:54:14;8.60;59.70
60495;DHT22;46342;49.046;11.920;2024-02-21T07:56:40;8.60;59.70
60495;DHT22;46342;49.046;11.920;2024-02-21T07:59:06;8.60;59.70
60495;DHT22;46342;49.046;11.920;2024-02-21T08:01:31;8.60;59.70
60495;DHT22;46342;49.046;11.920;2024-02-21T08:03:57;8.60;59.70
60495;DHT22;46342;49.046;11.920;2024-02-21T08:06:24;8.60;59.70
60495;DHT22;46342;49.046;11.920;2024-02-21T08:08:49;8.60;59.70
60495;DHT22;46342;49.046;11.920;2024-02-21T08:11:15;8.60;59.80
60495;DHT22;46342;49.046;11.920;2024-02-21T08:13:41;8.60;59.80
60495;DHT22;46342;49.046;11.920;2024-02-21T08:16:06;8.70;59.90
60495;DHT22;46342;49.046;11.920;2024-02-21T08:18:32;8.70;59.90
60495;DHT22;46342;49.046;11.920;2024-02-21T08:21:01;8.70;60.00
60495;DHT22;46342;49.046;11.920;2024-02-21T08:23:27;8.70;60.10
60495;DHT22;46342;49.046;11.920;2024-02-21T08:25:53;8.70;60.10
60495;DHT22;46342;49.046;11.920;2024-02-21T08:28:18;8.80;60.30
60495;DHT22;46342;49.046;11.920;2024-02-21T08:30:44;8.80;60.40
60495;DHT22;46342;49.046;11.920;2024-02-21T08:33:14;8.90;60.50
60495;DHT22;46342;49.046;11.920;2024-02-21T08:35:40;8.90;60.50
60495;DHT22;46342;49.046;11.920;2024-02-21T08:38:05;9.00;60.60
60495;DHT22;46342;49.046;11.920;2024-02-21T08:40:31;9.10;60.70
60495;DHT22;46342;49.046;11.920;2024-02-21T08:42:56;9.10;60.70
60495;DHT22;46342;49.046;11.920;2024-02-21T08:45:22;9.20;60.90
60495;DHT22;46342;49.046;11.920;2024-02-21T08:47:47;9.30;61.00
60495;DHT22;46342;49.046;11.920;2024-02-21T08:50:13;9.40;61.30
60495;DHT22;46342;49.046;11.920;2024-02-21T08:52:38;9.50;61.50
60495;DHT22;46342;49.046;11.920;2024-02-21T08:55:04;9.60;61.60
60495;DHT22;46342;49.046;11.920;2024-02-21T08:57:30;9.70;61.60
60495;DHT22;46342;49.046;11.920;2024-02-21T09:00:04;9.80;61.60
60495;DHT22;46342;49.046;11.920;2024-02-21T09:02:36;9.90;61.50
60495;DHT22;46342;49.046;11.920;2024-02-21T09:05:02;10.10;60.40
60495;DHT22;46342;49.046;11.920;2024-02-21T09:07:30;10.20;60.30
60495;DHT22;46342;49.046;11.920;2024-02-21T09:09:56;10.30;60.20
60495;DHT22;46342;49.046;11.920;2024-02-21T09:12:21;10.40;60.20
60495;DHT22;46342;49.046;11.920;2024-02-21T09:14:47;10.50;60.10
60495;DHT22;46342;49.046;11.920;2024-02-21T09:17:16;10.60;60.00
60495;DHT22;46342;49.046;11.920;2024-02-21T09:19:43;10.70;59.90
60495;DHT22;46342;49.046;11.920;2024-02-21T09:22:09;10.90;60.00
60495;DHT22;46342;49.046;11.920;2024-02-21T09:24:34;10.90;59.80
60495;DHT22;46342;49.046;11.920;2024-02-21T09:27:00;11.10;59.80
60495;DHT22;46342;49.046;11.920;2024-02-21T09:29:25;11.20;59.80
60495;DHT22;46342;49.046;11.920;2024-02-21T09:31:51;11.30;59.80
60495;DHT22;46342;49.046;11.920;2024-02-21T09:34:17;11.40;59.80
60495;DHT22;46342;49.046;11.920;2024-02-21T09:36:44;11.50;59.60
60495;DHT22;46342;49.046;11.920;2024-02-21T09:39:10;11.60;59.50
60495;DHT22;46342;49.046;11.920;2024-02-21T09:41:43;11.70;59.50
60495;DHT22;46342;49.046;11.920;2024-02-21T09:44:13;11.80;59.30
60495;DHT22;46342;49.046;11.920;2024-02-21T09:46:59;12.00;59.20
60495;DHT22;46342;49.046;11.920;2024-02-21T09:49:34;12.00;59.00
60495;DHT22;46342;49.046;11.920;2024-02-21T09:52:04;12.10;58.70
60495;DHT22;46342;49.046;11.920;2024-02-21T09:54:30;12.20;58.90
60495;DHT22;46342;49.046;11.920;2024-02-21T09:57:02;12.30;58.90
60495;DHT22;46342;49.046;11.920;2024-02-21T09:59:30;12.40;58.50
60495;DHT22;46342;49.046;11.920;2024-02-21T10:01:56;12.40;58.60
60495;DHT22;46342;49.046;11.920;2024-02-21T10:04:23;12.50;58.60
60495;DHT22;46342;49.046;11.920;2024-02-21T10:06:48;12.50;58.50
60495;DHT22;46342;49.046;11.920;2024-02-21T10:09:27;12.60;58.50
60495;DHT22;46342;49.046;11.920;2024-02-21T10:11:54;12.60;57.70
60495;DHT22;46342;49.046;11.920;2024-02-21T10:14:19;12.70;58.30
60495;DHT22;46342;49.046;11.920;2024-02-21T10:16:56;12.70;58.40
60495;DHT22;46342;49.046;11.920;2024-02-21T10:19:22;12.80;58.20
60495;DHT22;46342;49.046;11.920;2024-02-21T10:22:07;12.80;58.40
60495;DHT22;46342;49.046;11.920;2024-02-21T10:24:33;12.90;57.40
60495;DHT22;46342;49.046;11.920;2024-02-21T10:27:03;12.90;58.10
60495;DHT22;46342;49.046;11.920;2024-02-21T10:29:33;13.00;57.70
60495;DHT22;46342;49.046;11.920;2024-02-21T10:32:06;13.10;58.00
60495;DHT22;46342;49.046;11.920;2024-02-21T10:34:35;13.10;57.30
60495;DHT22;46342;49.046;11.920;2024-02-21T10:37:02;13.20;57.90
60495;DHT22;46342;49.046;11.920;2024-02-21T10:39:30;13.30;57.90
60495;DHT22;46342;49.046;11.920;2024-02-21T10:42:00;13.30;58.00
60495;DHT22;46342;49.046;11.920;2024-02-21T10:44:28;13.40;57.70
60495;DHT22;46342;49.046;11.920;2024-02-21T10:46:56;13.50;57.80
60495;DHT22;46342;49.046;11.920;2024-02-21T10:49:26;13.60;58.00
60495;DHT22;46342;49.046;11.920;2024-02-21T10:52:03;13.70;57.50
60495;DHT22;46342;49.046;11.920;2024-02-21T10:55:04;13.70;57.20
60495;DHT22;46342;49.046;11.920;2024-02-21T10:57:31;13.90;56.50
60495;DHT22;46342;49.046;11.920;2024-02-21T10:59:59;13.90;57.40
60495;DHT22;46342;49.046;11.920;2024-02-21T11:02:25;14.00;57.30
60495;DHT22;46342;49.046;11.920;2024-02-21T11:04:54;14.00;57.40
60495;DHT22;46342;49.046;11.920;2024-02-21T11:07:20;14.10;57.30
60495;DHT22;46342;49.046;11.920;2024-02-21T11:09:52;14.20;57.40
60495;DHT22;46342;49.046;11.920;2024-02-21T11:12:21;14.30;56.60
60495;DHT22;46342;49.046;11.920;2024-02-21T11:14:47;14.30;57.00
60495;DHT22;46342;49.046;11.920;2024-02-21T11:17:19;14.40;56.90
60495;DHT22;46342;49.046;11.920;2024-02-21T11:19:51;14.40;56.00
60495;DHT22;46342;49.046;11.920;2024-02-21T11:22:18;14.50;56.50
60495;DHT22;46342;49.046;11.920;2024-02-21T11:24:45;14.50;56.30
60495;DHT22;46342;49.046;11.920;2024-02-21T11:27:15;14.60;56.50
60495;DHT22;46342;49.046;11.920;2024-02-21T11:29:46;14.60;55.50
60495;DHT22;46342;49.046;11.920;2024-02-21T11:32:14;14.70;55.50
60495;DHT22;46342;49.046;11.920;2024-02-21T11:34:41;14.70;55.60
60495;DHT22;46342;49.046;11.920;2024-02-21T11:37:13;14.80;55.90
60495;DHT22;46342;49.046;11.920;2024-02-21T11:39:41;14.80;54.80
60495;DHT22;46342;49.046;11.920;2024-02-21T11:42:08;14.90;55.60
60495;DHT22;46342;49.046;11.920;2024-02-21T11:44:37;14.90;55.30
60495;DHT22;46342;49.046;11.920;2024-02-21T11:47:08;15.00;54.90
60495;DHT22;46342;49.046;11.920;2024-02-21T11:49:38;15.00;55.30
60495;DHT22;46342;49.046;11.920;2024-02-21T11:52:05;15.10;54.60
60495;DHT22;46342;49.046;11.920;2024-02-21T11:54:31;15.10;55.10
60495;DHT22;46342;49.046;11.920;2024-02-21T11:56:56;15.20;55.20
60495;DHT22;46342;49.046;11.920;2024-02-21T11:59:22;15.30;55.10
60495;DHT22;46342;49.046;11.920;2024-02-21T12:01:52;15.30;55.00
60495;DHT22;46342;49.046;11.920;2024-02-21T12:04:19;15.40;54.40
60495;DHT22;46342;49.046;11.920;2024-02-21T12:06:46;15.40;54.70
60495;DHT22;46342;49.046;11.920;2024-02-21T12:09:15;15.50;54.70
60495;DHT22;46342;49.046;11.920;2024-02-21T12:11:41;15.50;53.90
60495;DHT22;46342;49.046;11.920;2024-02-21T12:14:07;15.60;54.40
60495;DHT22;46342;49.046;11.920;2024-02-21T12:16:35;15.60;54.20
60495;DHT22;46342;49.046;11.920;2024-02-21T12:19:02;15.60;54.00
60495;DHT22;46342;49.046;11.920;2024-02-21T12:21:35;15.70;53.90
60495;DHT22;46342;49.046;11.920;2024-02-21T12:24:20;15.70;53.00
60495;DHT22;46342;49.046;11.920;2024-02-21T12:26:46;15.70;52.60
60495;DHT22;46342;49.046;11.920;2024-02-21T12:29:12;15.70;53.60
60495;DHT22;46342;49.046;11.920;2024-02-21T12:31:38;15.70;53.50
60495;DHT22;46342;49.046;11.920;2024-02-21T12:34:04;15.70;53.30
60495;DHT22;46342;49.046;11.920;2024-02-21T12:36:31;15.70;53.30
60495;DHT22;46342;49.046;11.920;2024-02-21T12:38:57;15.70;53.20
60495;DHT22;46342;49.046;11.920;2024-02-21T12:41:23;15.80;53.30
60495;DHT22;46342;49.046;11.920;2024-02-21T12:43:51;15.80;53.20
60495;DHT22;46342;49.046;11.920;2024-02-21T12:46:16;15.70;53.00
60495;DHT22;46342;49.046;11.920;2024-02-21T12:48:42;15.80;53.10
60495;DHT22;46342;49.046;11.920;2024-02-21T12:51:08;15.70;52.90
60495;DHT22;46342;49.046;11.920;2024-02-21T12:53:33;15.80;53.00
60495;DHT22;46342;49.046;11.920;2024-02-21T12:55:59;15.80;53.20
60495;DHT22;46342;49.046;11.920;2024-02-21T12:58:25;15.80;53.10
60495;DHT22;46342;49.046;11.920;2024-02-21T13:00:50;15.80;53.00
60495;DHT22;46342;49.046;11.920;2024-02-21T13:03:16;15.80;52.80
60495;DHT22;46342;49.046;11.920;2024-02-21T13:05:41;15.80;52.80
60495;DHT22;46342;49.046;11.920;2024-02-21T13:08:08;15.90;52.80
60495;DHT22;46342;49.046;11.920;2024-02-21T13:10:34;15.90;52.80
60495;DHT22;46342;49.046;11.920;2024-02-21T13:13:02;15.90;52.80
60495;DHT22;46342;49.046;11.920;2024-02-21T13:15:28;15.90;52.20
60495;DHT22;46342;49.046;11.920;2024-02-21T13:17:57;15.90;52.50
60495;DHT22;46342;49.046;11.920;2024-02-21T13:20:25;16.00;52.40
60495;DHT22;46342;49.046;11.920;2024-02-21T13:22:50;16.00;52.50
60495;DHT22;46342;49.046;11.920;2024-02-21T13:25:16;16.00;52.60
60495;DHT22;46342;49.046;11.920;2024-02-21T13:27:44;16.00;52.60
60495;DHT22;46342;49.046;11.920;2024-02-21T13:30:10;16.10;52.70
60495;DHT22;46342;49.046;11.920;2024-02-21T13:32:36;16.10;52.50
60495;DHT22;46342;49.046;11.920;2024-02-21T13:35:01;16.10;52.50
60495;DHT22;46342;49.046;11.920;2024-02-21T13:37:28;16.10;52.30
60495;DHT22;46342;49.046;11.920;2024-02-21T13:39:54;16.10;52.10
60495;DHT22;46342;49.046;11.920;2024-02-21T13:42:20;16.10;52.10
60495;DHT22;46342;49.046;11.920;2024-02-21T13:44:46;16.10;51.90
60495;DHT22;46342;49.046;11.920;2024-02-21T13:47:14;16.10;51.70
60495;DHT22;46342;49.046;11.920;2024-02-21T13:49:40;16.10;51.60
60495;DHT22;46342;49.046;11.920;2024-02-21T13:52:05;16.00;51.70
60495;DHT22;46342;49.046;11.920;2024-02-21T13:54:31;16.00;51.60
60495;DHT22;46342;49.046;11.920;2024-02-21T13:56:56;16.00;51.60
60495;DHT22;46342;49.046;11.920;2024-02-21T13:59:22;15.90;51.50
60495;DHT22;46342;49.046;11.920;2024-02-21T14:01:47;15.90;51.50
60495;DHT22;46342;49.046;11.920;2024-02-21T14:04:13;15.90;51.50
60495;DHT22;46342;49.046;11.920;2024-02-21T14:06:39;15.90;51.50
60495;DHT22;46342;49.046;11.920;2024-02-21T14:09:09;15.90;51.50
60495;DHT22;46342;49.046;11.920;2024-02-21T14:11:35;15.90;51.40
60495;DHT22;46342;49.046;11.920;2024-02-21T14:14:01;15.90;51.40
60495;DHT22;46342;49.046;11.920;2024-02-21T14:16:26;15.80;51.30
60495;DHT22;46342;49.046;11.920;2024-02-21T14:18:52;15.90;51.40
60495;DHT22;46342;49.046;11.920;2024-02-21T14:21:19;15.90;51.40
60495;DHT22;46342;49.046;11.920;2024-02-21T14:23:45;15.90;51.40
60495;DHT22;46342;49.046;11.920;2024-02-21T14:26:10;15.80;51.20
60495;DHT22;46342;49.046;11.920;2024-02-21T14:28:37;15.80;51.20
60495;DHT22;46342;49.046;11.920;2024-02-21T14:31:03;15.80;51.10
60495;DHT22;46342;49.046;11.920;2024-02-21T14:33:31;15.80;51.10
60495;DHT22;46342;49.046;11.920;2024-02-21T14:35:57;15.80;50.90
60495;DHT22;46342;49.046;11.920;2024-02-21T14:38:22;15.80;51.00
60495;DHT22;46342;49.046;11.920;2024-02-21T14:40:48;15.80;51.10
60495;DHT22;46342;49.046;11.920;2024-02-21T14:43:14;15.70;51.00
60495;DHT22;46342;49.046;11.920;2024-02-21T14:45:39;15.80;51.10
60495;DHT22;46342;49.046;11.920;2024-02-21T14:48:06;15.70;50.90
60495;DHT22;46342;49.046;11.920;2024-02-21T14:50:32;15.70;50.70
60495;DHT22;46342;49.046;11.920;2024-02-21T14:52:58;15.70;50.70
60495;DHT22;46342;49.046;11.920;2024-02-21T14:55:23;15.70;50.70
60495;DHT22;46342;49.046;11.920;2024-02-21T14:57:49;15.70;50.70
60495;DHT22;46342;49.046;11.920;2024-02-21T15:00:15;15.70;50.60
60495;DHT22;46342;49.046;11.920;2024-02-21T15:02:41;15.60;50.60
60495;DHT22;46342;49.046;11.920;2024-02-21T15:05:08;15.60;50.70
60495;DHT22;46342;49.046;11.920;2024-02-21T15:07:34;15.60;50.80
60495;DHT22;46342;49.046;11.920;2024-02-21T15:10:00;15.60;50.70
60495;DHT22;46342;49.046;11.920;2024-02-21T15:12:25;15.60;50.60
60495;DHT22;46342;49.046;11.920;2024-02-21T15:14:51;15.50;50.40
60495;DHT22;46342;49.046;11.920;2024-02-21T15:17:17;15.50;50.50
60495;DHT22;46342;49.046;11.920;2024-02-21T15:19:44;15.50;50.40
60495;DHT22;46342;49.046;11.920;2024-02-21T15:22:10;15.50;50.30